Aeroporto :
LOGIN :

Iscrizione | Disclaimer

   EN    FR    IT 

 










Sommario :    VFR   VFR Marginale   IFR   IFR Intensivo   IFR Molto Intensivo
Visibilità : 
Base nubi : 
>= 8 km
>= 3000ft
5 / 8 km
1000 / 3000 ft
1500m / 5 km
500 / 1000 ft
800 / 1500m
200 / 500 ft
< 800m
< 200 ft
Simboli :   Temporali  Nebbia  Neve Forte  Precipitazioni Forti  Vento > 20 kt
SIGMETs :   Varie  Temporali  Ghiacco  Turbolenza  Onda orograficha  Ceneri Vulcaniche






- Altitudine del aeroporto : 32 ft
- Codice IATA : LKZ


EGUL - RAF Lakenheath

ULTIMO METAR :
  • 241656Z AUTO 18017G25KT 9999 SCT031 16/16 A2936 RMK AO2 PK WND 16030/1557 SLP946 T01560156 $

METARs OBSOLETI :
  • 241556Z AUTO 18019G27KT 9999 SCT017 SCT030 15/15 A2940 RMK AO2 PK WND 17029/54 SLP959 T01530153 $
  • 241506Z AUTO 18019G25KT 9999 SCT016 15/15 A2944 RMK AO2 SLP973 $
  • 241456Z AUTO 18018G25KT 9999 BKN017 BKN023 15/15 A2945 RMK AO2 PK WND 18031/37 CIG 017V023 BKN017 V SCT SLP976 T01480148 57033 $
  • 241441Z AUTO 18019G31KT 9999 SCT017 BKN023 15/15 A2946 RMK AO2 CIG 018V024 SLP980 $

TAF TAF EGUL
Valido dal 24 a 16 ore il 25 a 22 ore UTC


241600Z 2416/2522 18025G35KT 9999 BKN020 510003 QNH2945INS
TEMPO 2418/2421 6000 SHRA
BECMG 2420/2421 20015G25KT 8000 -SHRA SCT008 BKN020 QNH2931INS
BECMG 2500/2501 25012KT 9999 NSW BKN020 QNH2935INS
BECMG 2507/2508 20012G20KT 9999 SCT020 QNH2940INS
BECMG 2512/2513 21015G25KT 8000 -SHRA VCTS BKN030CB QNH2936INS
BECMG 2515/2516 21015G25KT 8000 -SHRA SCT030 QNH2933INS TX16/2514Z TN08/2506Z



MetMap, La meteo Aeronautica in un colpo d'occhio ! - Copyright ORBIFLY Dicembre 2007 - Disclaimer

ORBIFLY MET'MAP TEAM :

Programmazione e sviluppo : Alexandra Zaïnal
Concezione : Baudouin d'Aumeries
Aiuto per la programmazione : Marc-Olivier Méhu
Supporto tecnico e logistico : Manuel Goepfert
Aiuto per la traduzione : Arnaldo La Scala

Contatto : metmap@orbifly.com




FONTI E CREDITI :

   NOAA